createdAt,value
2023-02-16T00:02:02.803Z,-3.72
2023-02-16T00:05:24.284Z,-3.48
2023-02-16T00:08:30.297Z,-3.41
2023-02-16T00:11:54.738Z,-3.15
2023-02-16T00:15:01.224Z,-3.01
2023-02-16T00:18:17.489Z,-2.79
2023-02-16T00:21:25.030Z,-3.07
2023-02-16T00:24:31.872Z,-2.69
2023-02-16T00:27:39.378Z,-3.06
2023-02-16T00:30:45.620Z,-3.36
2023-02-16T00:33:51.853Z,-3.38
2023-02-16T00:37:01.529Z,-3.56
2023-02-16T00:40:09.509Z,-3.79
2023-02-16T00:43:27.329Z,-3.77
2023-02-16T00:46:33.920Z,-3.84
2023-02-16T00:49:39.975Z,-3.51
2023-02-16T00:52:48.601Z,-4.04
2023-02-16T00:55:55.185Z,-3.78
2023-02-16T00:59:03.669Z,-3.90
2023-02-16T01:02:09.537Z,-3.79
2023-02-16T01:05:15.685Z,-3.14
2023-02-16T01:08:40.628Z,-3.06
2023-02-16T01:11:46.912Z,-3.03
2023-02-16T01:14:55.801Z,-3.00
2023-02-16T01:18:01.891Z,-3.71
2023-02-16T01:21:08.094Z,-3.74
2023-02-16T01:24:15.905Z,-3.80
2023-02-16T01:27:22.350Z,-3.79
2023-02-16T01:30:29.119Z,-3.99
2023-02-16T01:33:35.769Z,-4.04
2023-02-16T01:36:44.497Z,-3.77
2023-02-16T01:39:52.912Z,-3.53
2023-02-16T01:43:05.369Z,-3.51
2023-02-16T01:46:18.169Z,-3.27
2023-02-16T01:49:24.553Z,-3.15
2023-02-16T01:52:35.983Z,-3.05
2023-02-16T01:55:46.447Z,-3.02
2023-02-16T01:58:56.113Z,-3.50
2023-02-16T02:02:03.904Z,-3.40
2023-02-16T02:05:37.186Z,-3.21
2023-02-16T02:08:48.107Z,-3.92
2023-02-16T02:12:02.024Z,-3.27
2023-02-16T02:15:10.304Z,-4.43
2023-02-16T02:18:16.538Z,-4.78
2023-02-16T02:22:04.629Z,-5.07
2023-02-16T02:25:36.930Z,-5.15
2023-02-16T02:28:55.399Z,-4.32
2023-02-16T02:32:08.876Z,-3.62
2023-02-16T02:35:33.894Z,-3.96
2023-02-16T02:38:49.081Z,-4.69
2023-02-16T02:42:06.840Z,-4.22
2023-02-16T02:45:20.120Z,-4.23
2023-02-16T02:48:31.787Z,-3.65
2023-02-16T02:51:40.473Z,-3.78
2023-02-16T02:55:06.676Z,-3.80
2023-02-16T02:58:31.090Z,-3.77
2023-02-16T03:01:43.011Z,-4.86
2023-02-16T03:04:49.817Z,-5.08
2023-02-16T03:08:06.542Z,-5.05
2023-02-16T03:11:33.706Z,-4.20
2023-02-16T03:14:45.163Z,-4.65
2023-02-16T03:18:13.630Z,-4.78
2023-02-16T03:21:37.097Z,-4.31
2023-02-16T03:25:00.841Z,-4.54
2023-02-16T03:28:26.473Z,-4.26
2023-02-16T03:31:36.062Z,-4.08
2023-02-16T03:34:44.221Z,-4.68
2023-02-16T03:37:50.777Z,-4.72
2023-02-16T03:40:57.630Z,-4.06
2023-02-16T03:44:03.738Z,-4.05
2023-02-16T03:47:11.178Z,-4.14
2023-02-16T03:50:19.084Z,-4.11
2023-02-16T03:53:25.428Z,-4.60
2023-02-16T03:56:31.959Z,-4.32
2023-02-16T03:59:38.269Z,-4.12
2023-02-16T04:02:44.549Z,-4.23
2023-02-16T04:05:52.118Z,-4.35
2023-02-16T04:08:58.458Z,-4.63
2023-02-16T04:12:21.974Z,-4.58
2023-02-16T04:15:29.718Z,-4.62
2023-02-16T04:18:36.276Z,-4.85
2023-02-16T04:21:44.190Z,-4.76
2023-02-16T04:24:50.530Z,-4.86
2023-02-16T04:27:56.837Z,-5.37
2023-02-16T04:31:03.306Z,-4.73
2023-02-16T04:34:09.615Z,-5.14
2023-02-16T04:37:17.012Z,-4.77
2023-02-16T04:40:23.254Z,-5.24
2023-02-16T04:43:29.426Z,-4.68
2023-02-16T04:46:36.062Z,-4.98
2023-02-16T04:49:42.504Z,-4.58
2023-02-16T04:52:50.252Z,-4.73
2023-02-16T04:55:56.341Z,-5.19
2023-02-16T04:59:02.351Z,-4.79
2023-02-16T05:02:08.714Z,-4.72
2023-02-16T05:05:15.120Z,-4.55
2023-02-16T05:08:22.663Z,-4.87
2023-02-16T05:11:46.364Z,-4.78
2023-02-16T05:14:52.774Z,-4.85
2023-02-16T05:17:59.086Z,-5.39
2023-02-16T05:21:27.625Z,-5.00
2023-02-16T05:24:36.157Z,-5.24
2023-02-16T05:27:42.234Z,-5.03
2023-02-16T05:30:48.649Z,-4.77
2023-02-16T05:33:55.256Z,-4.71
2023-02-16T05:37:01.509Z,-4.49
2023-02-16T05:40:11.006Z,-5.91
2023-02-16T05:43:17.297Z,-6.07
2023-02-16T05:46:24.748Z,-5.65
2023-02-16T05:49:31.478Z,-4.97
2023-02-16T05:52:37.893Z,-4.32
2023-02-16T05:55:45.555Z,-4.61
2023-02-16T05:58:52.599Z,-4.49
2023-02-16T06:01:59.048Z,-4.38
2023-02-16T06:05:05.782Z,-4.31
2023-02-16T06:08:12.372Z,-4.30
2023-02-16T06:11:37.957Z,-3.79
2023-02-16T06:14:44.402Z,-3.60
2023-02-16T06:17:50.386Z,-4.23
2023-02-16T06:20:58.353Z,-3.40
2023-02-16T06:24:04.746Z,-2.53
2023-02-16T06:27:12.339Z,-1.87
2023-02-16T06:30:19.463Z,-1.84
2023-02-16T06:33:25.733Z,-1.55
2023-02-16T06:36:32.110Z,-1.10
2023-02-16T06:39:38.437Z,-0.93
2023-02-16T06:42:46.115Z,-1.23
2023-02-16T06:45:52.492Z,-1.41
2023-02-16T06:48:58.792Z,-1.65
2023-02-16T06:52:05.262Z,-1.57
2023-02-16T06:55:11.618Z,-2.08
2023-02-16T06:58:19.340Z,-1.50
2023-02-16T07:01:26.244Z,-1.30
2023-02-16T07:04:32.727Z,-0.75
2023-02-16T07:07:38.915Z,-0.71
2023-02-16T07:10:50.183Z,-0.55
2023-02-16T07:13:58.524Z,-0.23
2023-02-16T07:17:04.986Z,-0.09
2023-02-16T07:20:13.590Z,0.22
2023-02-16T07:23:19.891Z,-0.08
2023-02-16T07:26:26.444Z,0.05
2023-02-16T07:29:34.358Z,0.23
2023-02-16T07:32:40.471Z,0.65
2023-02-16T07:35:46.598Z,1.05
2023-02-16T07:38:53.769Z,0.87
2023-02-16T07:41:59.741Z,0.59
2023-02-16T07:45:08.124Z,0.87
2023-02-16T07:48:14.845Z,1.04
2023-02-16T07:51:25.253Z,0.71
2023-02-16T07:54:33.102Z,1.48
2023-02-16T07:57:40.906Z,1.97
2023-02-16T08:00:48.618Z,1.73
2023-02-16T08:03:55.515Z,2.26
2023-02-16T08:07:01.813Z,2.06
2023-02-16T08:10:09.034Z,2.06
2023-02-16T08:13:15.233Z,1.99
2023-02-16T08:16:24.631Z,2.09
2023-02-16T08:19:31.211Z,2.93
2023-02-16T08:22:38.381Z,2.38
2023-02-16T08:25:45.954Z,2.42
2023-02-16T08:28:52.841Z,2.73
2023-02-16T08:32:01.589Z,3.16
2023-02-16T08:35:10.272Z,3.35
2023-02-16T08:38:17.450Z,3.53
2023-02-16T08:41:27.004Z,3.58
2023-02-16T08:44:33.437Z,3.88
2023-02-16T08:47:41.070Z,3.83
2023-02-16T08:50:53.573Z,4.27
2023-02-16T08:54:02.360Z,4.56
2023-02-16T08:57:09.996Z,4.33
2023-02-16T09:00:35.704Z,4.40
2023-02-16T09:03:44.981Z,4.74
2023-02-16T09:06:52.558Z,4.97
2023-02-16T09:09:58.617Z,5.27
2023-02-16T09:13:04.630Z,5.18
2023-02-16T09:16:12.867Z,4.97
2023-02-16T09:19:22.481Z,4.61
2023-02-16T09:22:28.738Z,5.18
2023-02-16T09:25:37.018Z,6.10
2023-02-16T09:28:44.742Z,6.67
2023-02-16T09:31:52.297Z,6.08
2023-02-16T09:34:59.977Z,6.07
2023-02-16T09:38:07.838Z,6.03
2023-02-16T09:41:24.375Z,6.81
2023-02-16T09:44:39.873Z,6.77
2023-02-16T09:47:51.277Z,7.35
2023-02-16T09:51:00.682Z,7.68
2023-02-16T09:54:21.438Z,7.94
2023-02-16T09:57:43.415Z,7.73
2023-02-16T10:00:53.928Z,7.34
2023-02-16T10:04:17.052Z,8.32
2023-02-16T10:07:33.334Z,8.00
2023-02-16T10:10:49.444Z,8.33
2023-02-16T10:13:58.310Z,8.51
2023-02-16T10:17:18.416Z,8.50
2023-02-16T10:20:28.171Z,8.37
2023-02-16T10:23:46.678Z,8.93
2023-02-16T10:26:59.606Z,9.38
2023-02-16T10:30:13.780Z,9.25
2023-02-16T10:33:34.671Z,9.80
2023-02-16T10:36:58.626Z,9.46
2023-02-16T10:40:23.312Z,9.44
2023-02-16T10:43:41.687Z,9.67
2023-02-16T10:46:53.343Z,10.24
2023-02-16T10:50:00.057Z,10.09
2023-02-16T10:53:11.629Z,10.09
2023-02-16T10:56:40.754Z,10.87
2023-02-16T10:59:48.410Z,10.96
2023-02-16T11:02:55.550Z,10.72
2023-02-16T11:06:14.860Z,11.41
2023-02-16T11:09:29.440Z,10.91
2023-02-16T11:12:40.124Z,11.81
2023-02-16T11:15:54.720Z,11.32
2023-02-16T11:19:02.650Z,11.60
2023-02-16T11:22:25.957Z,11.20
2023-02-16T11:25:32.482Z,11.55
2023-02-16T11:28:43.006Z,11.69
2023-02-16T11:31:49.309Z,11.53
2023-02-16T11:34:55.632Z,11.66
2023-02-16T11:38:01.961Z,11.53
2023-02-16T11:41:08.701Z,12.01
2023-02-16T11:44:27.878Z,12.28
2023-02-16T11:47:36.264Z,12.92
2023-02-16T11:50:58.063Z,12.59
2023-02-16T11:54:07.920Z,13.23
2023-02-16T11:57:15.873Z,11.97
2023-02-16T12:00:26.681Z,13.15
2023-02-16T12:03:59.940Z,12.20
2023-02-16T12:07:15.672Z,12.10
2023-02-16T12:10:27.905Z,12.22
2023-02-16T12:13:43.103Z,12.98
2023-02-16T12:17:00.570Z,13.51
2023-02-16T12:20:21.828Z,13.01
2023-02-16T12:23:38.368Z,12.81
2023-02-16T12:26:50.186Z,13.48
2023-02-16T12:30:02.637Z,13.83
2023-02-16T12:33:26.283Z,14.02
2023-02-16T12:36:53.322Z,13.70
2023-02-16T12:40:09.140Z,13.86
2023-02-16T12:43:38.542Z,14.35
2023-02-16T12:46:46.969Z,13.93
2023-02-16T12:49:58.994Z,13.95
2023-02-16T12:53:10.773Z,14.37
2023-02-16T12:56:24.009Z,14.83
2023-02-16T12:59:40.917Z,13.95
2023-02-16T13:02:52.460Z,14.30
2023-02-16T13:06:19.721Z,13.74
2023-02-16T13:09:37.505Z,14.71
2023-02-16T13:12:51.253Z,14.35
2023-02-16T13:16:04.926Z,14.04
2023-02-16T13:19:13.440Z,13.80
2023-02-16T13:22:58.919Z,13.53
2023-02-16T13:26:50.392Z,13.36
2023-02-16T13:30:35.180Z,13.45
2023-02-16T13:34:05.751Z,13.98
2023-02-16T13:37:25.442Z,13.81
2023-02-16T13:41:16.628Z,13.98
2023-02-16T13:44:25.739Z,13.98
2023-02-16T13:47:34.700Z,14.34
2023-02-16T13:50:41.561Z,14.23
2023-02-16T13:53:55.738Z,14.13
2023-02-16T13:57:04.692Z,14.18
2023-02-16T14:00:30.321Z,14.17
2023-02-16T14:03:39.472Z,14.05
2023-02-16T14:06:46.434Z,14.24
2023-02-16T14:09:52.633Z,13.80
2023-02-16T14:13:00.649Z,14.38
2023-02-16T14:16:11.831Z,14.42
2023-02-16T14:19:26.109Z,14.44
2023-02-16T14:22:42.672Z,13.92
2023-02-16T14:25:51.278Z,13.60
2023-02-16T14:29:19.244Z,13.00
2023-02-16T14:32:29.632Z,12.67
2023-02-16T14:35:38.438Z,12.32
2023-02-16T14:38:48.218Z,12.11
2023-02-16T14:41:56.027Z,11.94
2023-02-16T14:45:27.799Z,11.53
2023-02-16T14:49:04.145Z,11.61
2023-02-16T14:52:43.802Z,11.05
2023-02-16T14:56:10.519Z,10.74
2023-02-16T14:59:31.999Z,10.42
2023-02-16T15:02:42.146Z,10.33
2023-02-16T15:05:58.001Z,10.67
2023-02-16T15:09:14.215Z,9.92
2023-02-16T15:12:24.324Z,9.84
2023-02-16T15:15:42.108Z,9.79
2023-02-16T15:18:52.902Z,9.31
2023-02-16T15:22:10.551Z,8.79
2023-02-16T15:25:24.420Z,8.89
2023-02-16T15:28:34.037Z,8.55
2023-02-16T15:31:40.714Z,8.38
2023-02-16T15:34:48.762Z,8.34
2023-02-16T15:38:03.315Z,8.39
2023-02-16T15:41:14.338Z,8.04
2023-02-16T15:44:32.710Z,7.70
2023-02-16T15:47:38.840Z,7.71
2023-02-16T15:50:46.923Z,7.60
2023-02-16T15:53:56.633Z,7.38
2023-02-16T15:57:06.855Z,7.49
2023-02-16T16:00:19.547Z,7.61
2023-02-16T16:03:25.606Z,7.26
2023-02-16T16:06:41.934Z,7.09
2023-02-16T16:09:48.670Z,7.01
2023-02-16T16:12:59.159Z,6.89
2023-02-16T16:16:07.375Z,6.51
2023-02-16T16:19:18.556Z,6.13
2023-02-16T16:22:37.189Z,6.04
2023-02-16T16:25:45.918Z,6.71
2023-02-16T16:28:52.987Z,6.20
2023-02-16T16:31:59.682Z,6.11
2023-02-16T16:35:21.426Z,6.28
2023-02-16T16:38:36.171Z,6.08
2023-02-16T16:41:42.269Z,6.21
2023-02-16T16:45:00.166Z,5.70
2023-02-16T16:48:15.530Z,5.93
2023-02-16T16:51:36.494Z,5.64
2023-02-16T16:54:46.537Z,6.13
2023-02-16T16:57:54.436Z,5.82
2023-02-16T17:01:00.618Z,5.73
2023-02-16T17:04:06.742Z,5.20
2023-02-16T17:07:12.878Z,4.64
2023-02-16T17:10:22.273Z,4.46
2023-02-16T17:13:29.040Z,4.35
2023-02-16T17:16:39.708Z,4.07
2023-02-16T17:19:46.087Z,4.16
2023-02-16T17:22:52.521Z,4.23
2023-02-16T17:26:00.326Z,4.10
2023-02-16T17:29:07.605Z,3.55
2023-02-16T17:32:13.882Z,3.97
2023-02-16T17:35:19.845Z,3.87
2023-02-16T17:38:26.361Z,3.48
2023-02-16T17:41:34.164Z,3.46
2023-02-16T17:44:40.408Z,3.35
2023-02-16T17:47:48.257Z,3.53
2023-02-16T17:50:54.676Z,3.28
2023-02-16T17:54:00.798Z,3.14
2023-02-16T17:57:08.554Z,3.01
2023-02-16T18:00:19.281Z,3.02
2023-02-16T18:03:25.597Z,2.77
2023-02-16T18:06:32.040Z,2.84
2023-02-16T18:09:38.486Z,3.04
2023-02-16T18:12:46.372Z,2.52
2023-02-16T18:15:53.007Z,2.48
2023-02-16T18:18:59.635Z,2.19
2023-02-16T18:22:05.804Z,2.46
2023-02-16T18:25:11.803Z,2.40
2023-02-16T18:28:21.602Z,2.31
2023-02-16T18:31:28.039Z,2.11
2023-02-16T18:34:35.155Z,1.86
2023-02-16T18:37:41.577Z,1.55
2023-02-16T18:40:47.755Z,1.63
2023-02-16T18:43:55.154Z,1.58
2023-02-16T18:47:01.888Z,1.70
2023-02-16T18:50:09.184Z,1.67
2023-02-16T18:53:15.269Z,1.63
2023-02-16T18:56:21.516Z,1.57
2023-02-16T18:59:29.227Z,1.47
2023-02-16T19:02:35.443Z,1.31
2023-02-16T19:05:41.727Z,1.35
2023-02-16T19:08:48.607Z,1.37
2023-02-16T19:11:56.199Z,1.14
2023-02-16T19:15:04.165Z,0.94
2023-02-16T19:18:10.499Z,1.23
2023-02-16T19:21:17.045Z,0.66
2023-02-16T19:24:23.314Z,1.12
2023-02-16T19:27:29.878Z,0.79
2023-02-16T19:30:37.537Z,0.98
2023-02-16T19:33:43.976Z,0.52
2023-02-16T19:36:50.257Z,0.75
2023-02-16T19:39:56.501Z,0.77
2023-02-16T19:43:02.877Z,0.07
2023-02-16T19:46:12.021Z,0.38
2023-02-16T19:49:19.359Z,0.48
2023-02-16T19:52:25.817Z,0.53
2023-02-16T19:55:32.281Z,0.30
2023-02-16T19:58:38.802Z,0.42
2023-02-16T20:01:46.631Z,0.41
2023-02-16T20:04:55.300Z,0.59
2023-02-16T20:08:02.338Z,0.52
2023-02-16T20:11:09.113Z,0.37
2023-02-16T20:14:15.532Z,-0.09
2023-02-16T20:17:23.691Z,-0.35
2023-02-16T20:20:30.400Z,0.12
2023-02-16T20:23:37.663Z,-0.81
2023-02-16T20:26:45.866Z,0.01
2023-02-16T20:29:52.031Z,0.23
2023-02-16T20:33:00.380Z,-0.05
2023-02-16T20:36:07.403Z,0.13
2023-02-16T20:39:14.138Z,0.26
2023-02-16T20:42:20.863Z,-0.15
2023-02-16T20:45:28.787Z,-0.23
2023-02-16T20:48:37.193Z,-0.27
2023-02-16T20:51:43.644Z,-0.16
2023-02-16T20:54:50.266Z,-0.17
2023-02-16T20:57:56.868Z,-0.18
2023-02-16T21:01:03.212Z,-0.07
2023-02-16T21:04:12.454Z,-0.29
2023-02-16T21:07:18.536Z,-0.06
2023-02-16T21:10:25.433Z,-0.04
2023-02-16T21:13:31.938Z,0.14
2023-02-16T21:16:41.887Z,-0.56
2023-02-16T21:19:49.870Z,-0.52
2023-02-16T21:22:56.316Z,-0.51
2023-02-16T21:26:06.334Z,-0.91
2023-02-16T21:29:13.220Z,-1.27
2023-02-16T21:32:19.493Z,-1.46
2023-02-16T21:35:27.172Z,-1.22
2023-02-16T21:38:33.743Z,-1.73
2023-02-16T21:41:40.428Z,-1.56
2023-02-16T21:44:50.244Z,-1.37
2023-02-16T21:48:14.157Z,-1.43
2023-02-16T21:51:24.937Z,-1.07
2023-02-16T21:54:44.940Z,-0.83
2023-02-16T21:57:51.153Z,-0.70
2023-02-16T22:00:57.689Z,-0.63
2023-02-16T22:04:05.810Z,-0.63
2023-02-16T22:07:13.529Z,-0.71
2023-02-16T22:10:19.791Z,-0.90
2023-02-16T22:13:26.041Z,-1.63
2023-02-16T22:16:34.311Z,-1.47
2023-02-16T22:19:40.832Z,-1.37
2023-02-16T22:22:48.698Z,-1.15
2023-02-16T22:25:54.822Z,-1.31
2023-02-16T22:29:03.681Z,-1.23
2023-02-16T22:32:13.271Z,-2.08
2023-02-16T22:35:19.753Z,-2.10
2023-02-16T22:38:27.956Z,-1.47
2023-02-16T22:41:34.923Z,-1.35
2023-02-16T22:44:41.472Z,-1.59
2023-02-16T22:47:47.597Z,-1.67
2023-02-16T22:50:59.059Z,-1.46
2023-02-16T22:54:07.438Z,-1.14
2023-02-16T22:57:13.522Z,-1.35
2023-02-16T23:00:20.165Z,-1.90
2023-02-16T23:03:26.776Z,-1.61
2023-02-16T23:06:35.085Z,-2.38
2023-02-16T23:09:42.650Z,-2.33
2023-02-16T23:12:49.042Z,-2.33
2023-02-16T23:15:55.412Z,-2.20
2023-02-16T23:19:01.890Z,-1.75
2023-02-16T23:22:08.278Z,-2.07
2023-02-16T23:25:34.673Z,-2.23
2023-02-16T23:28:42.988Z,-2.64
2023-02-16T23:31:49.630Z,-2.35
2023-02-16T23:34:55.879Z,-2.55
2023-02-16T23:38:03.814Z,-2.48
2023-02-16T23:41:14.450Z,-2.43
2023-02-16T23:44:20.772Z,-3.23
2023-02-16T23:47:27.450Z,-2.54
2023-02-16T23:50:33.949Z,-2.27
2023-02-16T23:53:40.156Z,-2.91
2023-02-16T23:56:47.953Z,-2.28
2023-02-16T23:59:54.323Z,-2.83
